sensor_id;sensor_type;location;lat;lon;timestamp;pressure;altitude;pressure_sealevel;temperature;humidity
65010;BME280;51556;50.002;22.014;2022-07-25T00:00:12;99501.35;;;17.15;65.46
65010;BME280;51556;50.002;22.014;2022-07-25T00:02:38;99499.83;;;16.99;65.60
65010;BME280;51556;50.002;22.014;2022-07-25T00:05:04;99499.54;;;16.91;65.84
65010;BME280;51556;50.002;22.014;2022-07-25T00:07:30;99497.65;;;16.85;66.03
65010;BME280;51556;50.002;22.014;2022-07-25T00:09:56;99496.85;;;16.84;66.11
65010;BME280;51556;50.002;22.014;2022-07-25T00:12:22;99501.65;;;16.80;66.24
65010;BME280;51556;50.002;22.014;2022-07-25T00:14:47;99499.98;;;16.74;66.76
65010;BME280;51556;50.002;22.014;2022-07-25T00:17:13;99499.66;;;16.66;66.83
65010;BME280;51556;50.002;22.014;2022-07-25T00:19:39;99502.63;;;16.63;66.78
65010;BME280;51556;50.002;22.014;2022-07-25T00:22:04;99499.91;;;16.57;67.09
65010;BME280;51556;50.002;22.014;2022-07-25T00:24:30;99502.86;;;16.51;67.22
65010;BME280;51556;50.002;22.014;2022-07-25T00:26:56;99501.15;;;16.49;66.83
65010;BME280;51556;50.002;22.014;2022-07-25T00:29:22;99502.27;;;16.52;67.02
65010;BME280;51556;50.002;22.014;2022-07-25T00:31:47;99499.54;;;16.49;67.17
65010;BME280;51556;50.002;22.014;2022-07-25T00:34:13;99497.77;;;16.42;67.34
65010;BME280;51556;50.002;22.014;2022-07-25T00:36:38;99500.87;;;16.40;67.25
65010;BME280;51556;50.002;22.014;2022-07-25T00:39:04;99498.58;;;16.39;67.23
65010;BME280;51556;50.002;22.014;2022-07-25T00:41:30;99500.19;;;16.39;67.34
65010;BME280;51556;50.002;22.014;2022-07-25T00:43:55;99502.80;;;16.33;67.38
65010;BME280;51556;50.002;22.014;2022-07-25T00:46:21;99504.20;;;16.30;67.40
65010;BME280;51556;50.002;22.014;2022-07-25T00:48:47;99503.32;;;16.30;67.40
65010;BME280;51556;50.002;22.014;2022-07-25T00:51:12;99508.79;;;16.27;67.65
65010;BME280;51556;50.002;22.014;2022-07-25T00:53:40;99505.48;;;16.21;67.81
65010;BME280;51556;50.002;22.014;2022-07-25T00:56:07;99505.13;;;16.18;67.74
65010;BME280;51556;50.002;22.014;2022-07-25T00:58:33;99500.21;;;16.16;68.02
65010;BME280;51556;50.002;22.014;2022-07-25T01:01:00;99502.20;;;16.12;68.00
65010;BME280;51556;50.002;22.014;2022-07-25T01:03:25;99497.11;;;16.10;68.04
65010;BME280;51556;50.002;22.014;2022-07-25T01:05:51;99497.29;;;16.11;68.27
65010;BME280;51556;50.002;22.014;2022-07-25T01:08:18;99494.32;;;16.09;68.10
65010;BME280;51556;50.002;22.014;2022-07-25T01:10:45;99492.39;;;16.09;68.12
65010;BME280;51556;50.002;22.014;2022-07-25T01:13:12;99493.11;;;16.09;68.27
65010;BME280;51556;50.002;22.014;2022-07-25T01:15:37;99494.16;;;16.05;67.99
65010;BME280;51556;50.002;22.014;2022-07-25T01:18:03;99496.36;;;16.03;67.99
65010;BME280;51556;50.002;22.014;2022-07-25T01:20:30;99499.48;;;16.01;68.43
65010;BME280;51556;50.002;22.014;2022-07-25T01:22:56;99502.31;;;15.98;68.26
65010;BME280;51556;50.002;22.014;2022-07-25T01:25:23;99501.81;;;15.93;67.98
65010;BME280;51556;50.002;22.014;2022-07-25T01:27:49;99499.58;;;15.92;68.29
65010;BME280;51556;50.002;22.014;2022-07-25T01:30:16;99503.98;;;15.84;68.59
65010;BME280;51556;50.002;22.014;2022-07-25T01:32:43;99501.70;;;15.80;68.62
65010;BME280;51556;50.002;22.014;2022-07-25T01:35:10;99497.07;;;15.76;68.49
65010;BME280;51556;50.002;22.014;2022-07-25T01:37:36;99491.85;;;15.78;68.40
65010;BME280;51556;50.002;22.014;2022-07-25T01:40:03;99500.89;;;15.78;68.28
65010;BME280;51556;50.002;22.014;2022-07-25T01:42:28;99499.34;;;15.73;68.54
65010;BME280;51556;50.002;22.014;2022-07-25T01:44:54;99501.41;;;15.66;68.62
65010;BME280;51556;50.002;22.014;2022-07-25T01:47:20;99497.69;;;15.66;68.36
65010;BME280;51556;50.002;22.014;2022-07-25T01:49:46;99496.90;;;15.68;68.72
65010;BME280;51556;50.002;22.014;2022-07-25T01:52:12;99492.98;;;15.68;68.52
65010;BME280;51556;50.002;22.014;2022-07-25T01:54:38;99494.69;;;15.66;68.76
65010;BME280;51556;50.002;22.014;2022-07-25T01:57:06;99491.52;;;15.61;68.85
65010;BME280;51556;50.002;22.014;2022-07-25T01:59:32;99492.20;;;15.58;68.79
65010;BME280;51556;50.002;22.014;2022-07-25T02:02:00;99488.24;;;15.59;68.90
65010;BME280;51556;50.002;22.014;2022-07-25T02:04:26;99487.50;;;15.60;68.97
65010;BME280;51556;50.002;22.014;2022-07-25T02:06:51;99484.18;;;15.59;68.92
65010;BME280;51556;50.002;22.014;2022-07-25T02:09:17;99484.88;;;15.59;69.01
65010;BME280;51556;50.002;22.014;2022-07-25T02:11:42;99486.56;;;15.61;68.69
65010;BME280;51556;50.002;22.014;2022-07-25T02:14:08;99487.80;;;15.57;68.84
65010;BME280;51556;50.002;22.014;2022-07-25T02:16:33;99486.77;;;15.52;68.73
65010;BME280;51556;50.002;22.014;2022-07-25T02:18:59;99485.29;;;15.49;68.97
65010;BME280;51556;50.002;22.014;2022-07-25T02:21:24;99485.90;;;15.52;68.79
65010;BME280;51556;50.002;22.014;2022-07-25T02:23:50;99486.80;;;15.51;68.50
65010;BME280;51556;50.002;22.014;2022-07-25T02:26:16;99486.06;;;15.52;68.49
65010;BME280;51556;50.002;22.014;2022-07-25T02:28:41;99485.98;;;15.54;68.52
65010;BME280;51556;50.002;22.014;2022-07-25T02:31:07;99484.93;;;15.54;68.50
65010;BME280;51556;50.002;22.014;2022-07-25T02:33:33;99487.95;;;15.53;68.52
65010;BME280;51556;50.002;22.014;2022-07-25T02:35:59;99484.92;;;15.50;68.51
65010;BME280;51556;50.002;22.014;2022-07-25T02:38:24;99487.58;;;15.46;68.86
65010;BME280;51556;50.002;22.014;2022-07-25T02:40:51;99488.25;;;15.46;68.53
65010;BME280;51556;50.002;22.014;2022-07-25T02:43:18;99485.77;;;15.46;68.61
65010;BME280;51556;50.002;22.014;2022-07-25T02:45:44;99485.29;;;15.45;68.77
65010;BME280;51556;50.002;22.014;2022-07-25T02:48:10;99483.64;;;15.38;69.06
65010;BME280;51556;50.002;22.014;2022-07-25T02:50:36;99485.72;;;15.30;69.16
65010;BME280;51556;50.002;22.014;2022-07-25T02:53:02;99489.04;;;15.23;69.21
65010;BME280;51556;50.002;22.014;2022-07-25T02:55:28;99488.42;;;15.18;69.12
65010;BME280;51556;50.002;22.014;2022-07-25T02:57:53;99487.58;;;15.12;69.34
65010;BME280;51556;50.002;22.014;2022-07-25T03:00:19;99491.34;;;15.12;69.57
65010;BME280;51556;50.002;22.014;2022-07-25T03:02:45;99491.20;;;15.11;69.58
65010;BME280;51556;50.002;22.014;2022-07-25T03:05:12;99491.01;;;15.07;69.53
65010;BME280;51556;50.002;22.014;2022-07-25T03:07:39;99488.11;;;15.04;69.84
65010;BME280;51556;50.002;22.014;2022-07-25T03:10:06;99490.93;;;15.04;69.68
65010;BME280;51556;50.002;22.014;2022-07-25T03:12:32;99488.75;;;15.06;69.70
65010;BME280;51556;50.002;22.014;2022-07-25T03:14:59;99494.55;;;15.07;69.65
65010;BME280;51556;50.002;22.014;2022-07-25T03:17:27;99493.58;;;15.05;69.51
65010;BME280;51556;50.002;22.014;2022-07-25T03:19:54;99494.30;;;15.04;69.89
65010;BME280;51556;50.002;22.014;2022-07-25T03:22:20;99494.15;;;15.03;69.56
65010;BME280;51556;50.002;22.014;2022-07-25T03:24:45;99491.52;;;15.03;69.57
65010;BME280;51556;50.002;22.014;2022-07-25T03:27:11;99487.41;;;15.03;69.58
65010;BME280;51556;50.002;22.014;2022-07-25T03:29:36;99486.28;;;15.05;69.60
65010;BME280;51556;50.002;22.014;2022-07-25T03:32:02;99487.94;;;15.08;69.63
65010;BME280;51556;50.002;22.014;2022-07-25T03:34:28;99485.09;;;15.08;69.34
65010;BME280;51556;50.002;22.014;2022-07-25T03:36:53;99486.27;;;15.06;69.36
65010;BME280;51556;50.002;22.014;2022-07-25T03:39:19;99487.03;;;15.04;69.43
65010;BME280;51556;50.002;22.014;2022-07-25T03:41:45;99487.88;;;15.05;69.47
65010;BME280;51556;50.002;22.014;2022-07-25T03:44:11;99487.04;;;15.04;69.42
65010;BME280;51556;50.002;22.014;2022-07-25T03:46:37;99487.67;;;15.06;69.42
65010;BME280;51556;50.002;22.014;2022-07-25T03:49:03;99486.34;;;15.08;69.42
65010;BME280;51556;50.002;22.014;2022-07-25T03:51:28;99485.55;;;15.10;69.54
65010;BME280;51556;50.002;22.014;2022-07-25T03:53:54;99483.58;;;15.06;69.73
65010;BME280;51556;50.002;22.014;2022-07-25T03:56:38;99478.28;;;15.01;69.56
65010;BME280;51556;50.002;22.014;2022-07-25T03:59:05;99482.80;;;14.99;69.94
65010;BME280;51556;50.002;22.014;2022-07-25T04:01:32;99486.00;;;14.95;70.46
65010;BME280;51556;50.002;22.014;2022-07-25T04:03:58;99486.15;;;14.91;70.27
65010;BME280;51556;50.002;22.014;2022-07-25T04:06:24;99488.09;;;14.87;70.61
65010;BME280;51556;50.002;22.014;2022-07-25T04:08:50;99487.55;;;14.84;71.17
65010;BME280;51556;50.002;22.014;2022-07-25T04:11:16;99482.43;;;14.83;70.92
65010;BME280;51556;50.002;22.014;2022-07-25T04:13:41;99486.08;;;14.85;71.21
65010;BME280;51556;50.002;22.014;2022-07-25T04:16:07;99481.56;;;14.86;71.61
65010;BME280;51556;50.002;22.014;2022-07-25T04:18:33;99476.52;;;14.93;71.30
65010;BME280;51556;50.002;22.014;2022-07-25T04:20:59;99477.79;;;15.00;71.19
65010;BME280;51556;50.002;22.014;2022-07-25T04:23:25;99477.29;;;15.08;71.49
65010;BME280;51556;50.002;22.014;2022-07-25T04:25:51;99478.85;;;15.09;71.41
65010;BME280;51556;50.002;22.014;2022-07-25T04:28:16;99484.38;;;15.09;71.63
65010;BME280;51556;50.002;22.014;2022-07-25T04:30:42;99480.98;;;15.13;71.86
65010;BME280;51556;50.002;22.014;2022-07-25T04:33:10;99482.32;;;15.19;71.93
65010;BME280;51556;50.002;22.014;2022-07-25T04:35:36;99486.86;;;15.25;71.67
65010;BME280;51556;50.002;22.014;2022-07-25T04:38:02;99481.27;;;15.31;71.88
65010;BME280;51556;50.002;22.014;2022-07-25T04:40:28;99478.85;;;15.38;71.98
65010;BME280;51556;50.002;22.014;2022-07-25T04:42:53;99476.83;;;15.44;72.22
65010;BME280;51556;50.002;22.014;2022-07-25T04:45:19;99474.14;;;15.49;71.96
65010;BME280;51556;50.002;22.014;2022-07-25T04:47:44;99473.91;;;15.54;71.74
65010;BME280;51556;50.002;22.014;2022-07-25T04:50:10;99472.48;;;15.63;71.94
65010;BME280;51556;50.002;22.014;2022-07-25T04:52:36;99472.55;;;15.69;71.88
65010;BME280;51556;50.002;22.014;2022-07-25T04:55:02;99462.84;;;15.76;71.88
65010;BME280;51556;50.002;22.014;2022-07-25T04:57:28;99460.73;;;15.79;71.88
65010;BME280;51556;50.002;22.014;2022-07-25T04:59:54;99464.73;;;15.85;72.19
65010;BME280;51556;50.002;22.014;2022-07-25T05:02:20;99466.81;;;15.90;71.92
65010;BME280;51556;50.002;22.014;2022-07-25T05:04:46;99465.73;;;15.97;71.85
65010;BME280;51556;50.002;22.014;2022-07-25T05:07:29;99466.56;;;16.03;72.09
65010;BME280;51556;50.002;22.014;2022-07-25T05:10:07;99466.14;;;16.08;72.55
65010;BME280;51556;50.002;22.014;2022-07-25T05:15:23;99453.60;;;16.18;72.38
65010;BME280;51556;50.002;22.014;2022-07-25T05:18:08;99451.53;;;16.21;72.50
65010;BME280;51556;50.002;22.014;2022-07-25T05:20:47;99453.39;;;16.27;72.04
65010;BME280;51556;50.002;22.014;2022-07-25T05:23:23;99450.03;;;16.37;72.33
65010;BME280;51556;50.002;22.014;2022-07-25T05:25:56;99451.87;;;16.47;71.95
65010;BME280;51556;50.002;22.014;2022-07-25T05:28:25;99451.23;;;16.56;71.76
65010;BME280;51556;50.002;22.014;2022-07-25T05:31:05;99450.67;;;16.68;71.98
65010;BME280;51556;50.002;22.014;2022-07-25T05:33:33;99444.29;;;16.79;71.73
65010;BME280;51556;50.002;22.014;2022-07-25T05:36:02;99434.50;;;16.86;71.68
65010;BME280;51556;50.002;22.014;2022-07-25T05:38:39;99431.30;;;16.93;71.35
65010;BME280;51556;50.002;22.014;2022-07-25T05:41:33;99425.52;;;17.02;71.30
65010;BME280;51556;50.002;22.014;2022-07-25T05:44:14;99428.26;;;17.14;71.20
65010;BME280;51556;50.002;22.014;2022-07-25T05:47:00;99425.27;;;17.24;70.70
65010;BME280;51556;50.002;22.014;2022-07-25T05:49:26;99430.48;;;17.30;70.22
65010;BME280;51556;50.002;22.014;2022-07-25T05:52:02;99430.16;;;17.36;69.99
65010;BME280;51556;50.002;22.014;2022-07-25T05:54:59;99431.65;;;17.48;69.85
65010;BME280;51556;50.002;22.014;2022-07-25T05:57:28;99430.38;;;17.59;69.29
65010;BME280;51556;50.002;22.014;2022-07-25T05:59:56;99428.44;;;17.69;69.16
65010;BME280;51556;50.002;22.014;2022-07-25T06:02:27;99426.97;;;17.80;68.87
65010;BME280;51556;50.002;22.014;2022-07-25T06:04:57;99426.39;;;17.90;68.75
65010;BME280;51556;50.002;22.014;2022-07-25T06:07:29;99425.30;;;18.04;68.29
65010;BME280;51556;50.002;22.014;2022-07-25T06:10:07;99422.17;;;18.15;67.74
65010;BME280;51556;50.002;22.014;2022-07-25T06:12:33;99426.13;;;18.27;67.61
65010;BME280;51556;50.002;22.014;2022-07-25T06:14:59;99424.58;;;18.42;67.24
65010;BME280;51556;50.002;22.014;2022-07-25T06:17:29;99430.13;;;18.54;66.93
65010;BME280;51556;50.002;22.014;2022-07-25T06:19:58;99430.27;;;18.67;66.61
65010;BME280;51556;50.002;22.014;2022-07-25T06:22:34;99437.35;;;18.81;66.33
65010;BME280;51556;50.002;22.014;2022-07-25T06:25:06;99438.52;;;18.86;65.92
65010;BME280;51556;50.002;22.014;2022-07-25T06:30:41;99435.64;;;19.07;65.59
65010;BME280;51556;50.002;22.014;2022-07-25T06:33:07;99440.35;;;19.15;65.36
65010;BME280;51556;50.002;22.014;2022-07-25T06:35:36;99438.00;;;19.21;65.16
65010;BME280;51556;50.002;22.014;2022-07-25T06:38:02;99437.04;;;19.31;64.97
65010;BME280;51556;50.002;22.014;2022-07-25T06:40:28;99436.48;;;19.40;64.61
65010;BME280;51556;50.002;22.014;2022-07-25T06:42:54;99431.91;;;19.48;64.35
65010;BME280;51556;50.002;22.014;2022-07-25T06:45:20;99428.12;;;19.58;64.16
65010;BME280;51556;50.002;22.014;2022-07-25T06:47:46;99423.76;;;19.71;63.64
65010;BME280;51556;50.002;22.014;2022-07-25T06:50:13;99424.65;;;19.82;63.35
65010;BME280;51556;50.002;22.014;2022-07-25T06:52:39;99419.08;;;19.94;62.83
65010;BME280;51556;50.002;22.014;2022-07-25T06:55:07;99419.42;;;20.03;62.38
65010;BME280;51556;50.002;22.014;2022-07-25T06:57:33;99414.60;;;20.11;62.45
65010;BME280;51556;50.002;22.014;2022-07-25T06:59:59;99415.73;;;20.18;62.08
65010;BME280;51556;50.002;22.014;2022-07-25T07:02:25;99408.89;;;20.28;61.10
65010;BME280;51556;50.002;22.014;2022-07-25T07:04:50;99409.48;;;20.32;60.24
65010;BME280;51556;50.002;22.014;2022-07-25T07:07:16;99408.70;;;20.39;60.25
65010;BME280;51556;50.002;22.014;2022-07-25T07:09:42;99404.48;;;20.43;59.36
65010;BME280;51556;50.002;22.014;2022-07-25T07:12:08;99403.02;;;20.49;59.93
65010;BME280;51556;50.002;22.014;2022-07-25T07:14:34;99399.20;;;20.58;59.78
65010;BME280;51556;50.002;22.014;2022-07-25T07:17:02;99399.65;;;20.68;59.47
65010;BME280;51556;50.002;22.014;2022-07-25T07:19:28;99399.41;;;20.77;59.43
65010;BME280;51556;50.002;22.014;2022-07-25T07:21:53;99394.54;;;20.85;59.11
65010;BME280;51556;50.002;22.014;2022-07-25T07:24:19;99393.98;;;20.93;58.98
65010;BME280;51556;50.002;22.014;2022-07-25T07:26:44;99385.41;;;21.01;58.86
65010;BME280;51556;50.002;22.014;2022-07-25T07:29:10;99388.25;;;21.12;58.50
65010;BME280;51556;50.002;22.014;2022-07-25T07:31:35;99388.25;;;21.22;58.33
65010;BME280;51556;50.002;22.014;2022-07-25T07:34:00;99387.98;;;21.29;57.92
65010;BME280;51556;50.002;22.014;2022-07-25T07:36:27;99392.23;;;21.38;57.81
65010;BME280;51556;50.002;22.014;2022-07-25T07:38:53;99387.60;;;21.45;57.58
65010;BME280;51556;50.002;22.014;2022-07-25T07:41:19;99388.70;;;21.50;56.88
65010;BME280;51556;50.002;22.014;2022-07-25T07:43:44;99388.34;;;21.53;57.01
65010;BME280;51556;50.002;22.014;2022-07-25T07:46:10;99388.55;;;21.59;57.09
65010;BME280;51556;50.002;22.014;2022-07-25T07:48:35;99389.43;;;21.67;56.54
65010;BME280;51556;50.002;22.014;2022-07-25T07:51:02;99384.16;;;21.73;56.30
65010;BME280;51556;50.002;22.014;2022-07-25T07:53:29;99383.71;;;21.82;56.23
65010;BME280;51556;50.002;22.014;2022-07-25T07:56:14;99386.02;;;21.92;55.89
65010;BME280;51556;50.002;22.014;2022-07-25T07:58:40;99382.70;;;22.01;56.23
65010;BME280;51556;50.002;22.014;2022-07-25T08:01:06;99381.78;;;22.09;56.26
65010;BME280;51556;50.002;22.014;2022-07-25T08:03:32;99381.87;;;22.20;55.59
65010;BME280;51556;50.002;22.014;2022-07-25T08:05:58;99380.60;;;22.23;53.89
65010;BME280;51556;50.002;22.014;2022-07-25T08:08:24;99383.90;;;22.22;53.56
65010;BME280;51556;50.002;22.014;2022-07-25T08:10:50;99379.05;;;22.20;53.22
65010;BME280;51556;50.002;22.014;2022-07-25T08:13:20;99376.77;;;22.19;53.56
65010;BME280;51556;50.002;22.014;2022-07-25T08:15:49;99376.08;;;22.24;53.87
65010;BME280;51556;50.002;22.014;2022-07-25T08:18:15;99372.00;;;22.32;53.86
65010;BME280;51556;50.002;22.014;2022-07-25T08:20:41;99369.66;;;22.38;53.52
65010;BME280;51556;50.002;22.014;2022-07-25T08:23:07;99368.30;;;22.44;53.22
65010;BME280;51556;50.002;22.014;2022-07-25T08:25:36;99368.59;;;22.47;52.76
65010;BME280;51556;50.002;22.014;2022-07-25T08:28:05;99367.55;;;22.56;53.05
65010;BME280;51556;50.002;22.014;2022-07-25T08:30:31;99357.48;;;22.66;52.74
65010;BME280;51556;50.002;22.014;2022-07-25T08:32:59;99360.65;;;22.74;52.59
65010;BME280;51556;50.002;22.014;2022-07-25T08:35:26;99356.02;;;22.78;51.90
65010;BME280;51556;50.002;22.014;2022-07-25T08:37:53;99356.73;;;22.86;52.47
65010;BME280;51556;50.002;22.014;2022-07-25T08:40:21;99355.14;;;22.99;53.56
65010;BME280;51556;50.002;22.014;2022-07-25T08:42:54;99353.30;;;23.11;52.98
65010;BME280;51556;50.002;22.014;2022-07-25T08:45:21;99347.34;;;23.25;52.77
65010;BME280;51556;50.002;22.014;2022-07-25T08:47:48;99343.60;;;23.37;52.10
65010;BME280;51556;50.002;22.014;2022-07-25T08:50:16;99341.11;;;23.50;51.73
65010;BME280;51556;50.002;22.014;2022-07-25T08:52:44;99343.02;;;23.65;51.34
65010;BME280;51556;50.002;22.014;2022-07-25T08:55:14;99339.60;;;23.78;51.59
65010;BME280;51556;50.002;22.014;2022-07-25T08:57:41;99343.59;;;23.93;50.80
65010;BME280;51556;50.002;22.014;2022-07-25T09:00:14;99341.06;;;24.05;50.63
65010;BME280;51556;50.002;22.014;2022-07-25T09:02:40;99338.19;;;24.15;49.56
65010;BME280;51556;50.002;22.014;2022-07-25T09:05:06;99339.20;;;24.25;50.08
65010;BME280;51556;50.002;22.014;2022-07-25T09:07:38;99335.61;;;24.36;49.62
65010;BME280;51556;50.002;22.014;2022-07-25T09:12:39;99333.48;;;24.61;48.79
65010;BME280;51556;50.002;22.014;2022-07-25T09:15:06;99337.55;;;24.69;47.34
65010;BME280;51556;50.002;22.014;2022-07-25T09:17:35;99330.32;;;24.74;47.05
65010;BME280;51556;50.002;22.014;2022-07-25T09:20:01;99330.15;;;24.73;46.63
65010;BME280;51556;50.002;22.014;2022-07-25T09:22:26;99323.00;;;24.75;46.52
65010;BME280;51556;50.002;22.014;2022-07-25T09:24:52;99321.17;;;24.77;47.02
65010;BME280;51556;50.002;22.014;2022-07-25T09:27:18;99315.63;;;24.83;47.23
65010;BME280;51556;50.002;22.014;2022-07-25T09:29:43;99320.35;;;24.93;47.96
65010;BME280;51556;50.002;22.014;2022-07-25T09:32:18;99317.01;;;25.05;47.45
65010;BME280;51556;50.002;22.014;2022-07-25T09:34:46;99314.48;;;25.15;47.01
65010;BME280;51556;50.002;22.014;2022-07-25T09:37:18;99315.41;;;25.27;47.68
65010;BME280;51556;50.002;22.014;2022-07-25T09:39:49;99316.50;;;25.40;47.01
65010;BME280;51556;50.002;22.014;2022-07-25T09:42:29;99315.00;;;25.51;46.99
65010;BME280;51556;50.002;22.014;2022-07-25T09:45:10;99309.41;;;25.59;45.69
65010;BME280;51556;50.002;22.014;2022-07-25T09:47:52;99306.48;;;25.68;45.33
65010;BME280;51556;50.002;22.014;2022-07-25T09:50:18;99309.52;;;25.74;45.12
65010;BME280;51556;50.002;22.014;2022-07-25T09:52:45;99310.52;;;25.81;45.74
65010;BME280;51556;50.002;22.014;2022-07-25T09:55:11;99308.71;;;25.89;45.20
65010;BME280;51556;50.002;22.014;2022-07-25T09:57:39;99307.36;;;25.98;45.51
65010;BME280;51556;50.002;22.014;2022-07-25T10:00:06;99303.34;;;26.09;45.27
65010;BME280;51556;50.002;22.014;2022-07-25T10:07:49;99297.33;;;26.17;43.02
65010;BME280;51556;50.002;22.014;2022-07-25T10:10:40;99294.83;;;26.23;43.10
65010;BME280;51556;50.002;22.014;2022-07-25T10:13:08;99288.98;;;26.32;42.35
65010;BME280;51556;50.002;22.014;2022-07-25T10:15:47;99283.48;;;26.42;43.13
65010;BME280;51556;50.002;22.014;2022-07-25T10:18:15;99280.96;;;26.56;42.40
65010;BME280;51556;50.002;22.014;2022-07-25T10:20:42;99280.25;;;26.65;42.66
65010;BME280;51556;50.002;22.014;2022-07-25T10:23:21;99281.00;;;26.79;42.89
65010;BME280;51556;50.002;22.014;2022-07-25T10:28:54;99278.96;;;27.12;43.05
65010;BME280;51556;50.002;22.014;2022-07-25T10:31:25;99274.16;;;27.22;43.00
65010;BME280;51556;50.002;22.014;2022-07-25T10:33:56;99271.30;;;27.31;42.44
65010;BME280;51556;50.002;22.014;2022-07-25T10:36:22;99265.48;;;27.45;42.11
65010;BME280;51556;50.002;22.014;2022-07-25T10:38:55;99263.90;;;27.59;41.84
65010;BME280;51556;50.002;22.014;2022-07-25T10:41:24;99263.81;;;27.71;41.03
65010;BME280;51556;50.002;22.014;2022-07-25T10:43:56;99264.43;;;27.80;41.30
65010;BME280;51556;50.002;22.014;2022-07-25T10:46:25;99264.80;;;27.87;41.59
65010;BME280;51556;50.002;22.014;2022-07-25T10:49:03;99260.45;;;28.00;40.95
65010;BME280;51556;50.002;22.014;2022-07-25T10:51:36;99257.42;;;28.14;40.55
65010;BME280;51556;50.002;22.014;2022-07-25T10:54:15;99252.86;;;28.27;38.73
65010;BME280;51556;50.002;22.014;2022-07-25T10:56:56;99250.05;;;28.40;39.22
65010;BME280;51556;50.002;22.014;2022-07-25T10:59:25;99243.67;;;28.51;38.95
65010;BME280;51556;50.002;22.014;2022-07-25T11:01:52;99239.88;;;28.60;39.53
65010;BME280;51556;50.002;22.014;2022-07-25T11:04:18;99233.19;;;28.79;39.39
65010;BME280;51556;50.002;22.014;2022-07-25T11:06:43;99231.61;;;28.93;39.52
65010;BME280;51556;50.002;22.014;2022-07-25T11:11:40;99227.76;;;29.16;37.92
65010;BME280;51556;50.002;22.014;2022-07-25T11:16:47;99224.18;;;29.26;38.25
65010;BME280;51556;50.002;22.014;2022-07-25T11:19:17;99219.14;;;29.46;37.66
65010;BME280;51556;50.002;22.014;2022-07-25T11:21:50;99216.10;;;29.56;36.81
65010;BME280;51556;50.002;22.014;2022-07-25T11:24:15;99215.89;;;29.70;35.89
65010;BME280;51556;50.002;22.014;2022-07-25T11:26:49;99213.33;;;29.81;36.48
65010;BME280;51556;50.002;22.014;2022-07-25T11:31:50;99208.48;;;30.21;37.14
65010;BME280;51556;50.002;22.014;2022-07-25T11:34:17;99203.86;;;30.38;35.70
65010;BME280;51556;50.002;22.014;2022-07-25T11:36:43;99200.63;;;30.52;35.59
65010;BME280;51556;50.002;22.014;2022-07-25T11:39:08;99201.67;;;30.70;35.18
65010;BME280;51556;50.002;22.014;2022-07-25T11:41:34;99198.84;;;30.80;33.83
65010;BME280;51556;50.002;22.014;2022-07-25T11:44:00;99199.59;;;30.93;34.48
65010;BME280;51556;50.002;22.014;2022-07-25T11:46:25;99193.59;;;31.10;34.38
65010;BME280;51556;50.002;22.014;2022-07-25T11:48:50;99188.13;;;31.27;35.06
65010;BME280;51556;50.002;22.014;2022-07-25T11:51:35;99189.77;;;31.46;33.99
65010;BME280;51556;50.002;22.014;2022-07-25T11:54:07;99189.20;;;31.68;32.90
65010;BME280;51556;50.002;22.014;2022-07-25T11:56:37;99187.06;;;31.78;33.15
65010;BME280;51556;50.002;22.014;2022-07-25T11:59:03;99181.29;;;31.95;32.96
65010;BME280;51556;50.002;22.014;2022-07-25T12:01:34;99183.84;;;32.13;33.27
65010;BME280;51556;50.002;22.014;2022-07-25T12:04:13;99176.09;;;32.36;33.13
65010;BME280;51556;50.002;22.014;2022-07-25T12:06:44;99170.27;;;32.61;32.41
65010;BME280;51556;50.002;22.014;2022-07-25T12:09:12;99169.92;;;32.75;32.12
65010;BME280;51556;50.002;22.014;2022-07-25T12:11:38;99167.79;;;32.78;32.18
65010;BME280;51556;50.002;22.014;2022-07-25T12:14:04;99165.02;;;32.93;31.03
65010;BME280;51556;50.002;22.014;2022-07-25T12:16:31;99163.48;;;32.99;30.34
65010;BME280;51556;50.002;22.014;2022-07-25T12:18:57;99161.28;;;33.08;30.73
65010;BME280;51556;50.002;22.014;2022-07-25T12:21:22;99161.29;;;33.23;29.62
65010;BME280;51556;50.002;22.014;2022-07-25T12:23:48;99158.15;;;33.28;29.17
65010;BME280;51556;50.002;22.014;2022-07-25T12:26:13;99155.73;;;33.36;29.74
65010;BME280;51556;50.002;22.014;2022-07-25T12:28:39;99154.67;;;33.52;30.83
65010;BME280;51556;50.002;22.014;2022-07-25T12:31:05;99153.65;;;33.70;31.44
65010;BME280;51556;50.002;22.014;2022-07-25T12:33:31;99148.95;;;33.81;28.83
65010;BME280;51556;50.002;22.014;2022-07-25T12:35:58;99150.36;;;33.83;28.10
65010;BME280;51556;50.002;22.014;2022-07-25T12:38:24;99152.28;;;33.78;28.55
65010;BME280;51556;50.002;22.014;2022-07-25T12:40:50;99150.94;;;33.81;28.32
65010;BME280;51556;50.002;22.014;2022-07-25T12:43:16;99144.94;;;33.86;28.03
65010;BME280;51556;50.002;22.014;2022-07-25T12:45:42;99140.17;;;33.95;28.37
65010;BME280;51556;50.002;22.014;2022-07-25T12:48:07;99140.28;;;34.06;28.08
65010;BME280;51556;50.002;22.014;2022-07-25T12:50:33;99142.67;;;34.23;28.33
65010;BME280;51556;50.002;22.014;2022-07-25T12:52:59;99140.02;;;34.34;26.87
65010;BME280;51556;50.002;22.014;2022-07-25T12:55:25;99135.88;;;34.36;27.35
65010;BME280;51556;50.002;22.014;2022-07-25T12:57:51;99131.91;;;34.37;27.28
65010;BME280;51556;50.002;22.014;2022-07-25T13:00:19;99131.46;;;34.34;27.10
65010;BME280;51556;50.002;22.014;2022-07-25T13:02:46;99129.27;;;34.38;27.39
65010;BME280;51556;50.002;22.014;2022-07-25T13:05:12;99122.10;;;34.47;27.30
65010;BME280;51556;50.002;22.014;2022-07-25T13:07:38;99120.59;;;34.61;27.25
65010;BME280;51556;50.002;22.014;2022-07-25T13:10:05;99116.73;;;34.82;26.99
65010;BME280;51556;50.002;22.014;2022-07-25T13:12:31;99111.94;;;35.04;27.16
65010;BME280;51556;50.002;22.014;2022-07-25T13:14:57;99108.52;;;35.27;25.97
65010;BME280;51556;50.002;22.014;2022-07-25T13:17:22;99111.89;;;35.37;25.44